Time;durP1;ratioP1;P1;durP2;ratioP2;P2;SDS_P1;SDS_P2;PMS_P1;PMS_P2;Temp;Humidity;BMP_temperature;BMP_pressure;BME280_temperature;BME280_humidity;BME280_pressure;Samples;Min_cycle;Max_cycle;Signal;HPM_P1;HPM_P2
2022/04/10 00:00:45;;;;;;;7.87;5.00;;;2.90;99.60;;;;;;5034428;28;20421;-45
2022/04/10 00:03:11;;;;;;;5.13;4.50;;;2.90;99.60;;;;;;5034700;28;20773;-45
2022/04/10 00:05:37;;;;;;;5.70;5.10;;;2.80;99.50;;;;;;5033196;28;20501;-45
2022/04/10 00:08:03;;;;;;;6.40;4.97;;;2.80;99.50;;;;;;5034340;28;20244;-45
2022/04/10 00:10:29;;;;;;;5.10;4.60;;;2.80;99.60;;;;;;5034685;28;20635;-44
2022/04/10 00:12:54;;;;;;;7.23;5.37;;;2.70;99.60;;;;;;5035160;28;20453;-45
2022/04/10 00:15:21;;;;;;;8.27;6.03;;;2.70;99.80;;;;;;5035530;28;20870;-44
2022/04/10 00:17:46;;;;;;;8.97;5.83;;;2.60;99.90;;;;;;5035347;28;20460;-45
2022/04/10 00:20:12;;;;;;;6.43;5.80;;;2.70;99.90;;;;;;5033203;28;20473;-45
2022/04/10 00:22:42;;;;;;;8.80;5.33;;;2.60;99.90;;;;;;5034574;28;20475;-44
2022/04/10 00:25:13;;;;;;;6.63;5.57;;;2.60;99.90;;;;;;5033171;28;20473;-44
2022/04/10 00:27:40;;;;;;;6.50;5.57;;;2.60;99.90;;;;;;5034416;28;20409;-44
2022/04/10 00:30:06;;;;;;;7.47;5.10;;;2.60;99.90;;;;;;5033773;28;20837;-44
2022/04/10 00:32:32;;;;;;;14.63;5.37;;;2.60;99.90;;;;;;5033239;28;20410;-44
2022/04/10 00:34:59;;;;;;;6.00;5.40;;;2.60;99.90;;;;;;5034336;28;20453;-44
2022/04/10 00:37:25;;;;;;;6.80;4.90;;;2.60;99.90;;;;;;5034588;28;20401;-44
2022/04/10 00:39:51;;;;;;;5.53;5.03;;;2.60;99.90;;;;;;5032822;28;20512;-44
2022/04/10 00:42:17;;;;;;;6.73;4.57;;;2.60;99.90;;;;;;5033843;28;20512;-44
2022/04/10 00:44:42;;;;;;;6.93;4.93;;;2.60;99.90;;;;;;5031120;28;20229;-44
2022/04/10 00:47:10;;;;;;;7.30;6.37;;;2.60;99.90;;;;;;5032001;28;20273;-44
2022/04/10 00:49:38;;;;;;;5.63;5.03;;;2.60;99.90;;;;;;5031643;28;20193;-44
2022/04/10 00:52:06;;;;;;;5.33;3.93;;;2.60;99.90;;;;;;5031039;28;20500;-44
2022/04/10 00:54:33;;;;;;;6.27;5.57;;;2.60;99.80;;;;;;5032837;28;20778;-44
2022/04/10 00:57:01;;;;;;;5.60;4.83;;;2.70;99.90;;;;;;5032847;28;20445;-44
2022/04/10 00:59:28;;;;;;;8.40;4.83;;;2.70;99.90;;;;;;5032551;28;21137;-44
2022/04/10 01:01:54;;;;;;;5.80;5.20;;;2.70;99.80;;;;;;5035381;28;20414;-44
2022/04/10 01:04:20;;;;;;;6.30;4.77;;;2.70;99.80;;;;;;5034576;28;20748;-45
2022/04/10 01:06:50;;;;;;;6.33;5.43;;;2.70;99.80;;;;;;5032229;28;20656;-44
2022/04/10 01:09:16;;;;;;;7.53;5.20;;;2.70;99.90;;;;;;5031728;28;20800;-44
2022/04/10 01:11:42;;;;;;;7.90;5.57;;;2.70;99.90;;;;;;5032649;28;20576;-44
2022/04/10 01:14:09;;;;;;;6.40;5.20;;;2.70;99.80;;;;;;5033517;28;20504;-44
2022/04/10 01:16:35;;;;;;;5.87;4.90;;;2.70;99.80;;;;;;5032576;28;20449;-45
2022/04/10 01:19:02;;;;;;;6.00;5.37;;;2.70;99.80;;;;;;5033929;28;20516;-44
2022/04/10 01:21:31;;;;;;;6.23;5.00;;;2.80;99.70;;;;;;5033456;28;20440;-44
2022/04/10 01:23:57;;;;;;;6.63;4.60;;;2.70;99.60;;;;;;5033839;28;20471;-45
2022/04/10 01:26:26;;;;;;;6.97;4.73;;;2.70;99.70;;;;;;5032843;28;20903;-45
2022/04/10 01:32:18;;;;;;;7.70;5.40;;;2.80;99.60;;;;;;4996191;28;20902;-45
2022/04/10 01:34:44;;;;;;;6.43;5.40;;;2.80;99.50;;;;;;5033263;28;20516;-45
2022/04/10 01:37:11;;;;;;;6.40;4.80;;;2.80;99.50;;;;;;5033639;28;20272;-45
2022/04/10 01:39:36;;;;;;;8.07;5.07;;;2.80;99.50;;;;;;5034188;28;20422;-45
2022/04/10 01:42:02;;;;;;;5.47;4.97;;;2.80;99.40;;;;;;5034773;28;20831;-45
2022/04/10 01:44:28;;;;;;;5.33;4.83;;;2.90;99.60;;;;;;5033422;28;20285;-45
2022/04/10 01:46:53;;;;;;;5.77;5.27;;;2.80;99.50;;;;;;5034199;28;20542;-45
2022/04/10 01:49:19;;;;;;;8.30;5.77;;;2.80;99.40;;;;;;5034149;28;20179;-45
2022/04/10 01:51:44;;;;;;;6.20;5.63;;;2.80;99.60;;;;;;5032528;28;20297;-45
2022/04/10 01:54:10;;;;;;;7.80;5.73;;;2.80;99.60;;;;;;5033630;28;20546;-45
2022/04/10 01:56:36;;;;;;;5.97;5.13;;;2.80;99.60;;;;;;5033560;28;20266;-45
2022/04/10 01:59:01;;;;;;;6.97;5.03;;;2.90;99.70;;;;;;5036719;28;20175;-45
2022/04/10 02:01:27;;;;;;;8.07;5.43;;;2.90;99.70;;;;;;5037046;28;20252;-45
2022/04/10 02:03:53;;;;;;;6.77;5.30;;;2.90;99.60;;;;;;5036631;28;20473;-45
2022/04/10 02:06:19;;;;;;;42.27;25.30;;;2.80;99.40;;;;;;5036929;28;20536;-45
2022/04/10 02:08:51;;;;;;;121.63;65.73;;;2.80;99.40;;;;;;5035659;28;20179;-45
2022/04/10 02:11:19;;;;;;;34.63;20.67;;;2.80;99.30;;;;;;5035450;28;20480;-45
2022/04/10 02:13:45;;;;;;;13.33;8.73;;;2.80;99.20;;;;;;5034986;28;20773;-45
2022/04/10 02:16:18;;;;;;;6.63;5.80;;;2.80;99.20;;;;;;5035979;28;20743;-45
2022/04/10 02:18:44;;;;;;;7.60;6.60;;;2.80;99.20;;;;;;5035054;28;20424;-45
2022/04/10 02:21:10;;;;;;;139.43;64.97;;;2.80;99.20;;;;;;5036142;28;20413;-45
2022/04/10 02:23:36;;;;;;;12.97;10.00;;;2.70;99.20;;;;;;5037177;28;20232;-45
2022/04/10 02:26:02;;;;;;;8.80;6.43;;;2.70;99.20;;;;;;5038562;28;20489;-45
2022/04/10 02:28:28;;;;;;;7.37;5.73;;;2.70;99.20;;;;;;5037401;28;20702;-45
2022/04/10 02:30:54;;;;;;;8.77;6.50;;;2.70;99.30;;;;;;5036726;28;20475;-45
2022/04/10 02:33:19;;;;;;;7.33;6.60;;;2.60;99.30;;;;;;5035511;28;20236;-45
2022/04/10 02:35:45;;;;;;;8.97;4.93;;;2.60;99.30;;;;;;5036520;28;20175;-45
2022/04/10 02:38:11;;;;;;;8.30;5.47;;;2.60;99.30;;;;;;5036677;28;20671;-45
2022/04/10 02:40:37;;;;;;;5.87;5.27;;;2.50;99.30;;;;;;5037587;28;20480;-45
2022/04/10 02:43:02;;;;;;;6.13;5.53;;;2.50;99.40;;;;;;5037264;28;20473;-45
2022/04/10 02:45:28;;;;;;;6.23;5.10;;;2.40;99.40;;;;;;5037875;28;20189;-45
2022/04/10 02:47:54;;;;;;;6.57;5.80;;;2.40;99.40;;;;;;5036963;28;20267;-45
2022/04/10 02:50:19;;;;;;;5.67;5.07;;;2.40;99.60;;;;;;5036595;28;20432;-45
2022/04/10 02:52:45;;;;;;;8.40;5.83;;;2.40;99.50;;;;;;5035203;28;20385;-45
2022/04/10 02:55:10;;;;;;;7.20;6.07;;;2.30;99.50;;;;;;5037435;28;20179;-45
2022/04/10 02:57:37;;;;;;;6.50;5.90;;;2.30;99.50;;;;;;5035214;28;20384;-45
2022/04/10 03:00:04;;;;;;;6.93;6.33;;;2.20;99.50;;;;;;5036068;28;20198;-45
2022/04/10 03:02:30;;;;;;;10.03;5.77;;;2.20;99.50;;;;;;5034814;28;20426;-45
2022/04/10 03:04:55;;;;;;;9.73;6.20;;;2.20;99.50;;;;;;5035094;28;20495;-45
2022/04/10 03:07:21;;;;;;;6.20;5.10;;;2.10;99.50;;;;;;5034801;28;20206;-45
2022/04/10 03:09:47;;;;;;;7.50;5.60;;;2.10;99.40;;;;;;5035227;28;20194;-45
2022/04/10 03:12:13;;;;;;;8.00;6.07;;;2.00;99.50;;;;;;5035981;28;20472;-45
2022/04/10 03:14:38;;;;;;;6.50;5.53;;;2.00;99.60;;;;;;5035070;28;20183;-45
2022/04/10 03:17:04;;;;;;;7.40;6.30;;;2.00;99.70;;;;;;5036948;28;20350;-45
2022/04/10 03:19:30;;;;;;;8.80;6.03;;;2.00;99.70;;;;;;5036378;28;20420;-45
2022/04/10 03:21:55;;;;;;;6.67;5.40;;;1.90;99.60;;;;;;5035971;28;20490;-45
2022/04/10 03:24:21;;;;;;;6.80;5.53;;;1.90;99.50;;;;;;5036602;28;20191;-45
2022/04/10 03:26:47;;;;;;;7.60;6.50;;;1.90;99.50;;;;;;5035292;28;20779;-45
2022/04/10 03:29:12;;;;;;;8.17;6.30;;;1.90;99.60;;;;;;5035493;28;20505;-45
2022/04/10 03:31:39;;;;;;;8.00;6.57;;;1.90;99.60;;;;;;5036119;28;20333;-45
2022/04/10 03:34:04;;;;;;;8.03;7.23;;;1.90;99.70;;;;;;5035778;28;20456;-44
2022/04/10 03:36:31;;;;;;;9.37;7.20;;;1.80;99.90;;;;;;5036409;28;20410;-45
2022/04/10 03:38:57;;;;;;;6.70;5.73;;;1.70;99.70;;;;;;5035845;28;20277;-45
2022/04/10 03:41:24;;;;;;;10.97;7.37;;;1.70;99.70;;;;;;5036936;28;20422;-45
2022/04/10 03:43:49;;;;;;;8.00;7.00;;;1.70;99.80;;;;;;5035315;28;20206;-45
2022/04/10 03:46:15;;;;;;;8.33;7.43;;;1.60;99.80;;;;;;5034844;28;20429;-45
2022/04/10 03:48:40;;;;;;;7.50;6.70;;;1.60;99.90;;;;;;5035683;28;20228;-45
2022/04/10 03:51:06;;;;;;;8.10;7.23;;;1.60;99.90;;;;;;5036157;28;20288;-45
2022/04/10 03:53:33;;;;;;;10.00;7.53;;;1.60;99.90;;;;;;5035616;28;20285;-45
2022/04/10 03:55:59;;;;;;;8.93;6.67;;;1.50;99.90;;;;;;5036211;28;20253;-45
2022/04/10 03:58:24;;;;;;;8.00;7.30;;;1.50;99.90;;;;;;5036223;28;20406;-44
2022/04/10 04:00:51;;;;;;;8.03;6.00;;;1.40;99.90;;;;;;5035340;28;20179;-45
2022/04/10 04:03:16;;;;;;;7.63;6.90;;;1.40;99.90;;;;;;5035231;28;20426;-45
2022/04/10 04:05:42;;;;;;;7.80;7.07;;;1.40;99.90;;;;;;5035858;28;20429;-47
2022/04/10 04:08:08;;;;;;;7.40;6.67;;;1.40;99.90;;;;;;5034574;28;20502;-45
2022/04/10 04:10:34;;;;;;;8.00;6.60;;;1.40;99.90;;;;;;5035358;28;20206;-43
2022/04/10 04:13:00;;;;;;;7.13;6.50;;;1.50;99.90;;;;;;5035065;28;20580;-46
2022/04/10 04:15:26;;;;;;;7.20;6.00;;;1.50;99.90;;;;;;5034061;28;20425;-45
2022/04/10 04:17:51;;;;;;;7.93;7.10;;;1.50;99.90;;;;;;5035502;28;20414;-44
2022/04/10 04:20:17;;;;;;;8.07;7.30;;;1.40;99.90;;;;;;5034749;28;20725;-47
2022/04/10 04:22:43;;;;;;;9.47;6.90;;;1.40;99.90;;;;;;5035041;28;20190;-43
2022/04/10 04:25:09;;;;;;;8.70;6.53;;;1.40;99.90;;;;;;5035182;28;20569;-44
2022/04/10 04:27:34;;;;;;;8.17;7.47;;;1.40;99.80;;;;;;5034901;28;20198;-44
2022/04/10 04:30:01;;;;;;;7.67;6.83;;;1.40;99.80;;;;;;5036056;28;20493;-47
2022/04/10 04:32:27;;;;;;;9.20;7.20;;;1.40;99.80;;;;;;5037034;28;20285;-44
2022/04/10 04:34:52;;;;;;;9.97;7.83;;;1.40;99.80;;;;;;5036199;28;20499;-45
2022/04/10 04:37:18;;;;;;;8.50;6.67;;;1.40;99.80;;;;;;5036874;28;20429;-43
2022/04/10 04:39:44;;;;;;;10.27;7.23;;;1.40;99.70;;;;;;5036053;28;20253;-44
2022/04/10 04:42:09;;;;;;;8.20;7.23;;;1.40;99.70;;;;;;5035007;28;20252;-43
2022/04/10 04:44:35;;;;;;;9.37;7.23;;;1.40;99.70;;;;;;5035596;28;20186;-43
2022/04/10 04:47:01;;;;;;;8.43;7.50;;;1.40;99.70;;;;;;5036662;28;20183;-45
2022/04/10 04:49:27;;;;;;;8.73;7.83;;;1.40;99.80;;;;;;5035521;28;20260;-45
2022/04/10 04:51:53;;;;;;;8.93;7.63;;;1.40;99.90;;;;;;5036006;28;20472;-45
2022/04/10 04:54:19;;;;;;;8.50;7.30;;;1.50;99.90;;;;;;5034265;28;20487;-45
2022/04/10 04:56:45;;;;;;;9.13;7.50;;;1.50;99.90;;;;;;5033818;28;20171;-47
2022/04/10 04:59:14;;;;;;;9.23;7.90;;;1.50;99.90;;;;;;5035358;28;20838;-44
2022/04/10 05:01:41;;;;;;;8.80;7.90;;;1.60;99.90;;;;;;5034372;28;20271;-44
2022/04/10 05:04:07;;;;;;;10.00;9.00;;;1.70;99.90;;;;;;5034882;28;20551;-45
2022/04/10 05:06:33;;;;;;;10.33;9.43;;;1.70;99.90;;;;;;5033578;28;20720;-44
2022/04/10 05:08:59;;;;;;;10.30;9.40;;;1.80;99.90;;;;;;5033869;28;20405;-46
2022/04/10 05:11:25;;;;;;;8.67;7.77;;;1.80;99.90;;;;;;5033599;28;20280;-44
2022/04/10 05:13:51;;;;;;;8.50;7.70;;;1.90;99.90;;;;;;5034539;28;20518;-44
2022/04/10 05:16:16;;;;;;;9.30;8.40;;;1.90;99.90;;;;;;5034034;28;20221;-43
2022/04/10 05:18:42;;;;;;;10.03;8.13;;;2.00;99.80;;;;;;5034211;28;20178;-45
2022/04/10 05:21:07;;;;;;;9.40;8.50;;;2.10;99.90;;;;;;5033334;28;20187;-46
2022/04/10 05:23:33;;;;;;;13.70;9.23;;;2.10;99.90;;;;;;5034045;28;20204;-45
2022/04/10 05:25:59;;;;;;;13.13;11.83;;;2.10;99.80;;;;;;5031608;28;20679;-47
2022/04/10 05:28:25;;;;;;;11.60;9.93;;;2.20;99.80;;;;;;5033109;28;20203;-48
2022/04/10 05:30:50;;;;;;;10.23;9.10;;;2.30;99.90;;;;;;5030973;28;20309;-46
2022/04/10 05:33:16;;;;;;;10.17;9.17;;;2.30;99.80;;;;;;5033947;28;20189;-46
2022/04/10 05:35:42;;;;;;;9.00;8.20;;;2.40;99.80;;;;;;5037427;28;20421;-46
2022/04/10 05:38:08;;;;;;;9.70;8.80;;;2.50;99.60;;;;;;5045697;28;20754;-45
2022/04/10 05:40:34;;;;;;;9.27;8.30;;;2.50;99.50;;;;;;5059706;28;20427;-44
2022/04/10 05:43:00;;;;;;;8.40;7.70;;;2.60;99.40;;;;;;5060460;28;20593;-45
2022/04/10 05:45:26;;;;;;;9.47;7.80;;;2.70;99.20;;;;;;5061473;28;20202;-44
2022/04/10 05:47:52;;;;;;;10.70;9.13;;;2.80;99.00;;;;;;5060698;28;20420;-44
2022/04/10 05:50:17;;;;;;;8.90;8.00;;;2.80;98.80;;;;;;5059174;28;20838;-45
2022/04/10 05:52:45;;;;;;;10.57;7.30;;;2.90;98.80;;;;;;5059708;28;20500;-44
2022/04/10 05:55:14;;;;;;;9.10;8.20;;;3.00;98.80;;;;;;5060144;28;20454;-47
2022/04/10 05:57:41;;;;;;;11.10;7.60;;;3.10;98.80;;;;;;5059448;28;20436;-44
2022/04/10 06:00:10;;;;;;;9.73;7.20;;;3.30;98.60;;;;;;5058016;28;20419;-45
2022/04/10 06:02:36;;;;;;;8.57;7.83;;;3.40;98.40;;;;;;5059367;28;20429;-45
2022/04/10 06:05:03;;;;;;;10.33;7.97;;;3.50;98.30;;;;;;5060068;28;20421;-44
2022/04/10 06:07:28;;;;;;;10.83;8.53;;;3.70;98.10;;;;;;5062026;28;20649;-44
2022/04/10 06:09:54;;;;;;;11.40;8.87;;;3.80;97.90;;;;;;5061767;28;20953;-45
2022/04/10 06:12:20;;;;;;;9.10;8.20;;;4.00;97.60;;;;;;5060548;28;20325;-45
2022/04/10 06:14:45;;;;;;;8.90;8.00;;;4.10;97.20;;;;;;5059756;28;20174;-44
2022/04/10 06:17:12;;;;;;;8.37;7.50;;;4.20;97.00;;;;;;5056954;28;20432;-47
2022/04/10 06:19:38;;;;;;;11.93;8.33;;;4.30;96.90;;;;;;5058801;28;20846;-45
2022/04/10 06:22:05;;;;;;;8.50;7.57;;;4.50;96.70;;;;;;5058075;28;20532;-43
2022/04/10 06:24:31;;;;;;;8.53;7.40;;;4.60;96.40;;;;;;5058315;28;20690;-48
2022/04/10 06:26:57;;;;;;;10.83;7.87;;;4.70;96.40;;;;;;5057340;28;20479;-44
2022/04/10 06:29:23;;;;;;;9.57;7.63;;;4.80;96.20;;;;;;5058500;28;20182;-48
2022/04/10 06:31:48;;;;;;;9.67;7.20;;;5.00;96.00;;;;;;5057612;28;20485;-46
2022/04/10 06:34:14;;;;;;;7.47;6.80;;;5.20;95.80;;;;;;5058304;28;20506;-46
2022/04/10 06:36:40;;;;;;;8.30;6.33;;;5.30;95.10;;;;;;5058575;28;20170;-47
2022/04/10 06:39:06;;;;;;;9.43;7.20;;;5.50;94.80;;;;;;5059165;28;20209;-45
2022/04/10 06:41:32;;;;;;;7.00;6.37;;;5.60;93.80;;;;;;5058112;28;20827;-46
2022/04/10 06:43:57;;;;;;;6.93;6.27;;;5.30;93.30;;;;;;5056173;28;20252;-46
2022/04/10 06:46:24;;;;;;;8.87;6.30;;;5.30;93.20;;;;;;5057752;28;20409;-44
2022/04/10 06:48:50;;;;;;;8.40;6.60;;;5.20;93.40;;;;;;5055513;28;20255;-45
2022/04/10 06:51:18;;;;;;;6.60;6.00;;;5.20;93.50;;;;;;5055184;28;20464;-48
2022/04/10 06:53:44;;;;;;;9.43;7.33;;;5.10;93.60;;;;;;5054185;28;20592;-45
2022/04/10 06:56:10;;;;;;;7.63;6.70;;;5.20;93.10;;;;;;5054718;28;20573;-46
2022/04/10 06:58:36;;;;;;;7.60;6.87;;;5.20;93.20;;;;;;5053732;28;20497;-46
2022/04/10 07:01:02;;;;;;;8.33;7.53;;;5.00;93.90;;;;;;5054392;28;20273;-47
2022/04/10 07:03:28;;;;;;;7.43;6.70;;;5.10;94.00;;;;;;5053791;28;20428;-44
2022/04/10 07:05:54;;;;;;;11.90;7.70;;;5.20;93.80;;;;;;5053705;28;20632;-45
2022/04/10 07:08:20;;;;;;;10.03;8.03;;;5.30;93.40;;;;;;5053279;28;20439;-47
2022/04/10 07:10:45;;;;;;;11.57;8.47;;;5.50;93.40;;;;;;5054544;28;20448;-44
2022/04/10 07:13:17;;;;;;;6.90;6.30;;;5.50;93.50;;;;;;5055876;28;20171;-45
2022/04/10 07:15:46;;;;;;;6.80;6.20;;;5.50;93.30;;;;;;5055148;28;20216;-44
2022/04/10 07:18:12;;;;;;;8.10;7.30;;;5.60;92.80;;;;;;5054722;28;20413;-49
2022/04/10 07:20:38;;;;;;;11.07;6.90;;;5.70;93.20;;;;;;5054757;28;20419;-45
2022/04/10 07:25:48;;;;;;;8.17;6.73;;;5.70;92.60;;;;;;5054052;28;20531;-44
2022/04/10 07:28:13;;;;;;;7.20;6.43;;;5.90;92.80;;;;;;5054054;28;20646;-45
2022/04/10 07:30:39;;;;;;;11.43;8.27;;;6.30;92.70;;;;;;5046177;28;20465;-44
2022/04/10 07:33:05;;;;;;;7.50;6.73;;;6.50;92.00;;;;;;5035602;28;20442;-46
2022/04/10 07:35:30;;;;;;;7.53;6.87;;;6.70;91.60;;;;;;5038230;28;20173;-48
2022/04/10 07:37:56;;;;;;;7.20;6.60;;;7.10;91.60;;;;;;5037231;28;20421;-45
2022/04/10 07:40:22;;;;;;;7.00;6.17;;;7.40;90.50;;;;;;5033631;28;20189;-48
2022/04/10 07:42:48;;;;;;;7.27;6.50;;;7.50;89.30;;;;;;5032582;28;20171;-45
2022/04/10 07:47:59;;;;;;;8.00;5.67;;;7.80;88.50;;;;;;5031744;28;20537;-45
2022/04/10 07:50:25;;;;;;;6.87;6.10;;;7.80;84.80;;;;;;5032611;28;20697;-47
2022/04/10 07:52:51;;;;;;;7.40;6.80;;;7.40;84.80;;;;;;5032970;28;20416;-48
2022/04/10 07:55:17;;;;;;;8.30;6.33;;;7.30;85.70;;;;;;5032505;28;20433;-45
2022/04/10 07:57:42;;;;;;;7.20;5.90;;;7.00;85.30;;;;;;5032552;28;20699;-47
2022/04/10 08:00:08;;;;;;;6.57;5.97;;;7.10;87.30;;;;;;5034776;28;20175;-47
2022/04/10 08:02:34;;;;;;;6.80;5.47;;;7.10;86.40;;;;;;5034046;28;20565;-45
2022/04/10 08:05:00;;;;;;;6.00;5.40;;;7.00;84.50;;;;;;5032090;28;20439;-45
2022/04/10 08:07:25;;;;;;;7.63;5.60;;;7.30;85.30;;;;;;5033516;28;20179;-46
2022/04/10 08:09:51;;;;;;;6.90;5.90;;;7.50;85.00;;;;;;5031779;28;20194;-47
2022/04/10 08:12:16;;;;;;;5.97;5.47;;;7.40;83.70;;;;;;5032700;28;20207;-45
2022/04/10 08:14:43;;;;;;;6.40;5.90;;;7.90;83.00;;;;;;5033059;28;20616;-46
2022/04/10 08:17:11;;;;;;;7.77;4.97;;;8.60;81.90;;;;;;5032110;28;20270;-46
2022/04/10 08:19:38;;;;;;;5.63;5.13;;;9.40;78.50;;;;;;5029973;28;20930;-45
2022/04/10 08:22:04;;;;;;;7.47;4.93;;;9.80;75.90;;;;;;5044540;28;20890;-48
2022/04/10 08:24:30;;;;;;;6.27;4.50;;;10.10;74.10;;;;;;5051786;28;20433;-45
2022/04/10 08:26:55;;;;;;;6.67;5.00;;;11.20;68.90;;;;;;5052320;28;20478;-48
2022/04/10 08:29:21;;;;;;;6.50;5.70;;;12.20;66.20;;;;;;5050846;28;20186;-46
2022/04/10 08:31:47;;;;;;;4.70;3.90;;;13.30;62.60;;;;;;5050544;28;20216;-46
2022/04/10 08:34:13;;;;;;;7.70;4.50;;;14.50;58.30;;;;;;5050866;28;20186;-46
2022/04/10 08:36:39;;;;;;;8.80;5.10;;;15.30;55.30;;;;;;5051518;28;20436;-45
2022/04/10 08:39:05;;;;;;;6.87;4.80;;;14.90;52.50;;;;;;5050901;28;20535;-45
2022/04/10 08:41:33;;;;;;;6.40;5.20;;;13.90;52.50;;;;;;5050956;28;20511;-46
2022/04/10 08:44:04;;;;;;;4.07;3.67;;;13.70;51.80;;;;;;5051647;28;20740;-47
2022/04/10 08:46:30;;;;;;;6.50;5.50;;;13.30;50.80;;;;;;5033580;28;20424;-45
2022/04/10 08:48:58;;;;;;;5.30;4.80;;;11.50;50.70;;;;;;5051924;28;20450;-46
2022/04/10 08:51:25;;;;;;;5.43;4.23;;;11.20;52.90;;;;;;5051451;28;20460;-44
2022/04/10 08:53:53;;;;;;;5.93;4.63;;;11.50;53.80;;;;;;5052003;28;20539;-47
2022/04/10 08:56:19;;;;;;;5.83;5.13;;;11.20;53.90;;;;;;5050974;28;20440;-47
2022/04/10 08:58:45;;;;;;;8.73;6.80;;;11.20;54.30;;;;;;5051678;28;20421;-45
2022/04/10 09:01:12;;;;;;;9.50;6.10;;;10.60;54.90;;;;;;5049208;28;20425;-48
2022/04/10 09:03:38;;;;;;;9.73;6.47;;;10.10;54.70;;;;;;5048852;28;20439;-48
2022/04/10 09:06:05;;;;;;;14.17;9.13;;;9.60;56.70;;;;;;5050359;28;20419;-50
2022/04/10 09:08:31;;;;;;;6.80;6.10;;;9.00;59.90;;;;;;5050692;28;20694;-45
2022/04/10 09:11:00;;;;;;;5.67;4.73;;;9.00;60.00;;;;;;5053098;28;20743;-47
2022/04/10 09:13:40;;;;;;;10.80;5.30;;;9.00;60.40;;;;;;5050793;28;20191;-48
2022/04/10 09:16:15;;;;;;;5.70;4.40;;;9.00;60.10;;;;;;5047783;28;20417;-47
2022/04/10 09:18:49;;;;;;;8.23;4.97;;;8.80;58.70;;;;;;5049186;28;20419;-46
2022/04/10 09:21:16;;;;;;;4.97;4.03;;;8.80;58.90;;;;;;5051001;28;20715;-46
2022/04/10 09:23:45;;;;;;;9.33;5.10;;;9.00;57.80;;;;;;5047761;28;20651;-45
2022/04/10 09:26:12;;;;;;;6.33;4.93;;;9.20;57.70;;;;;;5047796;28;20698;-48
2022/04/10 09:28:46;;;;;;;9.73;6.57;;;10.00;57.20;;;;;;5048611;28;20490;-47
2022/04/10 09:31:33;;;;;;;7.73;5.47;;;10.40;55.80;;;;;;5049763;28;20782;-45
2022/04/10 09:34:04;;;;;;;4.50;4.10;;;10.80;54.60;;;;;;5048577;28;20443;-45
2022/04/10 09:36:34;;;;;;;4.00;3.60;;;10.70;52.60;;;;;;5048538;28;20413;-47
2022/04/10 09:39:01;;;;;;;4.57;3.83;;;10.70;53.20;;;;;;5049926;28;20440;-48
2022/04/10 09:41:27;;;;;;;5.83;4.30;;;10.60;53.70;;;;;;5049012;28;20436;-48
2022/04/10 09:43:53;;;;;;;5.53;3.80;;;10.60;54.20;;;;;;5049831;28;20455;-47
2022/04/10 09:46:18;;;;;;;6.20;4.07;;;10.80;54.90;;;;;;5051050;28;20174;-45
2022/04/10 09:48:44;;;;;;;4.63;4.10;;;11.10;53.50;;;;;;5050006;28;20277;-46
2022/04/10 09:51:12;;;;;;;4.90;3.40;;;12.20;54.00;;;;;;5048817;28;20202;-46
2022/04/10 09:53:38;;;;;;;4.13;3.43;;;13.40;49.70;;;;;;5049424;28;20372;-45
2022/04/10 09:56:05;;;;;;;11.80;6.93;;;14.70;48.20;;;;;;5049026;28;20416;-45
2022/04/10 09:58:32;;;;;;;8.90;4.43;;;15.40;46.50;;;;;;5050700;28;20196;-47
2022/04/10 10:00:59;;;;;;;6.57;4.33;;;15.00;42.80;;;;;;5049061;28;20482;-46
2022/04/10 10:03:28;;;;;;;4.33;3.93;;;15.20;44.00;;;;;;5048587;28;20421;-45
2022/04/10 10:05:54;;;;;;;5.40;3.87;;;14.50;42.80;;;;;;5048417;28;20412;-45
2022/04/10 10:08:21;;;;;;;5.00;3.27;;;14.00;43.10;;;;;;5049130;28;20429;-45
2022/04/10 10:10:47;;;;;;;6.40;4.93;;;12.70;43.20;;;;;;5047983;28;20467;-50
2022/04/10 10:13:13;;;;;;;8.30;5.00;;;10.50;50.40;;;;;;5048654;28;20944;-45
2022/04/10 10:15:40;;;;;;;6.67;5.33;;;9.90;56.30;;;;;;5047961;28;20170;-47
2022/04/10 10:18:08;;;;;;;5.10;4.17;;;8.60;63.10;;;;;;5051225;28;20494;-46
2022/04/10 10:20:34;;;;;;;7.90;5.93;;;7.60;72.50;;;;;;5053416;28;20652;-45
2022/04/10 10:23:02;;;;;;;7.63;6.83;;;6.40;82.50;;;;;;5053693;28;21326;-45
2022/04/10 10:25:47;;;;;;;14.80;9.97;;;5.60;91.00;;;;;;5051847;28;20913;-46
2022/04/10 10:28:29;;;;;;;12.20;9.77;;;4.90;92.90;;;;;;5053316;28;20436;-48
2022/04/10 10:31:26;;;;;;;10.93;9.83;;;4.80;94.10;;;;;;5054343;28;20705;-50
2022/04/10 10:33:56;;;;;;;10.80;8.17;;;5.00;94.50;;;;;;5053712;28;20415;-47
2022/04/10 10:36:26;;;;;;;8.53;7.70;;;5.20;94.40;;;;;;5050694;28;20431;-46
2022/04/10 10:38:56;;;;;;;10.90;9.67;;;5.60;93.30;;;;;;5034918;28;20428;-46
2022/04/10 10:41:22;;;;;;;9.00;8.07;;;6.10;92.50;;;;;;5035347;28;20429;-46
2022/04/10 10:43:48;;;;;;;8.23;7.30;;;6.60;91.80;;;;;;5035036;28;20440;-45
2022/04/10 10:46:26;;;;;;;8.60;7.77;;;7.40;91.60;;;;;;5032002;28;20181;-47
2022/04/10 10:49:13;;;;;;;7.93;7.13;;;8.60;89.00;;;;;;5032963;28;20437;-52
2022/04/10 10:51:41;;;;;;;7.83;6.97;;;10.70;83.40;;;;;;5019253;28;20555;-46
2022/04/10 10:54:15;;;;;;;7.37;6.67;;;12.70;77.60;;;;;;5034512;28;20500;-46
2022/04/10 10:56:42;;;;;;;7.10;6.40;;;13.80;60.90;;;;;;5034285;28;20444;-48
2022/04/10 10:59:33;;;;;;;6.63;5.60;;;14.70;56.30;;;;;;5033775;28;20427;-46
2022/04/10 11:02:11;;;;;;;6.63;6.10;;;16.50;54.30;;;;;;5035423;28;20421;-47
2022/04/10 11:04:41;;;;;;;7.37;6.60;;;18.00;48.30;;;;;;5035236;28;20418;-44
2022/04/10 11:07:19;;;;;;;5.97;5.00;;;19.30;47.80;;;;;;5033567;28;20669;-46
2022/04/10 11:10:07;;;;;;;5.53;5.03;;;20.00;43.00;;;;;;5032883;28;20418;-46
2022/04/10 11:12:50;;;;;;;6.23;5.50;;;20.60;43.80;;;;;;5034046;28;20755;-46
2022/04/10 11:15:15;;;;;;;5.17;4.67;;;20.70;41.70;;;;;;5033082;28;20554;-44
2022/04/10 11:17:41;;;;;;;6.37;5.83;;;20.20;39.40;;;;;;5033585;28;20452;-43
2022/04/10 11:20:09;;;;;;;6.27;5.67;;;19.30;39.40;;;;;;5032156;28;20221;-46
2022/04/10 11:22:39;;;;;;;6.37;5.77;;;17.80;40.70;;;;;;5032254;28;20183;-46
2022/04/10 11:25:09;;;;;;;7.67;5.73;;;16.00;44.00;;;;;;5031480;28;20452;-44
2022/04/10 11:27:57;;;;;;;6.20;5.60;;;14.60;46.90;;;;;;5030507;28;20556;-44
2022/04/10 11:30:32;;;;;;;5.43;5.00;;;13.20;50.30;;;;;;5032550;28;20737;-47
2022/04/10 11:32:58;;;;;;;7.53;5.70;;;12.20;53.10;;;;;;5033903;28;20447;-44
2022/04/10 11:35:25;;;;;;;6.93;5.80;;;11.60;55.30;;;;;;5031802;28;20433;-44
2022/04/10 11:37:53;;;;;;;5.90;5.00;;;11.20;57.80;;;;;;5028722;28;20193;-46
2022/04/10 11:40:24;;;;;;;6.60;6.00;;;10.90;59.80;;;;;;5030473;28;20410;-44
2022/04/10 11:42:51;;;;;;;5.57;5.03;;;10.80;63.20;;;;;;5030180;28;20866;-46
2022/04/10 11:45:18;;;;;;;6.10;5.60;;;10.80;64.20;;;;;;5031676;28;20517;-47
2022/04/10 11:47:43;;;;;;;6.47;5.40;;;11.00;64.80;;;;;;5031495;28;20444;-44
2022/04/10 11:50:11;;;;;;;6.03;4.50;;;11.50;67.50;;;;;;5030248;28;20448;-44
2022/04/10 11:52:37;;;;;;;5.20;4.70;;;12.30;65.70;;;;;;5030480;28;20218;-48
2022/04/10 11:55:08;;;;;;;7.77;5.47;;;13.80;60.50;;;;;;5031860;28;20418;-46
2022/04/10 11:57:37;;;;;;;7.20;5.73;;;15.60;57.70;;;;;;5016233;28;20249;-46
2022/04/10 12:00:07;;;;;;;4.77;4.37;;;16.30;53.20;;;;;;5031649;28;20539;-46
2022/04/10 12:02:34;;;;;;;6.83;5.70;;;16.10;51.60;;;;;;5031654;28;20430;-46
2022/04/10 12:05:00;;;;;;;8.20;6.07;;;15.60;48.20;;;;;;5031939;28;20508;-47
2022/04/10 12:07:26;;;;;;;6.90;6.23;;;14.60;47.00;;;;;;5029237;28;20966;-45
2022/04/10 12:09:52;;;;;;;6.13;5.63;;;13.60;47.90;;;;;;5029273;28;20499;-46
2022/04/10 12:12:30;;;;;;;5.80;5.20;;;12.90;50.50;;;;;;5030187;28;20320;-44
2022/04/10 12:14:56;;;;;;;6.97;6.27;;;12.40;52.90;;;;;;5049662;28;20422;-45
2022/04/10 12:17:22;;;;;;;7.23;6.60;;;12.30;54.40;;;;;;5050332;28;20425;-46
2022/04/10 12:19:54;;;;;;;6.17;5.67;;;13.00;54.30;;;;;;5049812;28;20177;-43
2022/04/10 12:22:24;;;;;;;5.10;4.60;;;14.40;54.20;;;;;;5038621;28;20225;-46
2022/04/10 12:24:57;;;;;;;5.70;5.10;;;15.70;53.20;;;;;;5032835;28;20413;-47
2022/04/10 12:27:22;;;;;;;5.53;4.10;;;17.20;47.80;;;;;;5033064;28;20481;-48
2022/04/10 12:29:48;;;;;;;8.03;4.33;;;18.70;47.90;;;;;;5032460;28;20457;-45
2022/04/10 12:32:15;;;;;;;7.17;4.43;;;20.80;45.00;;;;;;5031251;28;20212;-46
2022/04/10 12:34:44;;;;;;;5.10;4.60;;;22.20;40.60;;;;;;5032496;28;20417;-46
2022/04/10 12:37:12;;;;;;;5.53;5.07;;;23.50;38.10;;;;;;5030357;28;20463;-46
2022/04/10 12:39:38;;;;;;;4.93;4.30;;;24.70;34.70;;;;;;5028610;28;20660;-46
2022/04/10 12:42:08;;;;;;;5.57;5.07;;;23.70;34.60;;;;;;5030084;28;20429;-46
2022/04/10 12:44:37;;;;;;;5.43;4.93;;;21.90;33.60;;;;;;5032459;28;20442;-49
2022/04/10 12:47:06;;;;;;;4.00;3.60;;;21.80;33.60;;;;;;5031390;28;20926;-37
2022/04/10 12:49:33;;;;;;;5.00;4.50;;;21.80;35.50;;;;;;5031537;28;20417;-44
2022/04/10 12:52:00;;;;;;;4.43;4.00;;;22.00;33.00;;;;;;5031164;28;20477;-45
2022/04/10 12:54:39;;;;;;;4.10;3.73;;;22.20;33.60;;;;;;5031839;28;20448;-44
2022/04/10 12:57:06;;;;;;;3.97;3.07;;;21.70;32.60;;;;;;5031699;28;20459;-46
2022/04/10 12:59:46;;;;;;;3.97;3.57;;;21.00;35.30;;;;;;5030911;28;20417;-46
2022/04/10 13:02:27;;;;;;;4.70;3.53;;;20.20;36.30;;;;;;5031490;28;20436;-45